sensor_id;sensor_type;location;lat;lon;timestamp;P1;durP1;ratioP1;P2;durP2;ratioP2
52074;SDS011;38075;53.172;5.446;2022-09-09T00:01:47;12.02;;;8.27;;
52074;SDS011;38075;53.172;5.446;2022-09-09T00:09:43;10.73;;;7.80;;
52074;SDS011;38075;53.172;5.446;2022-09-09T00:20:46;69.68;;;9.32;;
52074;SDS011;38075;53.172;5.446;2022-09-09T00:23:37;12.50;;;7.63;;
52074;SDS011;38075;53.172;5.446;2022-09-09T00:29:03;41.10;;;9.50;;
52074;SDS011;38075;53.172;5.446;2022-09-09T00:31:36;12.45;;;7.70;;
52074;SDS011;38075;53.172;5.446;2022-09-09T00:36:43;57.35;;;7.20;;
52074;SDS011;38075;53.172;5.446;2022-09-09T00:44:51;41.97;;;6.35;;
52074;SDS011;38075;53.172;5.446;2022-09-09T00:53:02;16.67;;;6.60;;
52074;SDS011;38075;53.172;5.446;2022-09-09T00:58:37;15.50;;;8.63;;
52074;SDS011;38075;53.172;5.446;2022-09-09T01:01:03;11.57;;;8.13;;
52074;SDS011;38075;53.172;5.446;2022-09-09T01:03:49;16.15;;;8.48;;
52074;SDS011;38075;53.172;5.446;2022-09-09T01:08:53;11.30;;;7.38;;
52074;SDS011;38075;53.172;5.446;2022-09-09T01:14:39;17.20;;;7.65;;
52074;SDS011;38075;53.172;5.446;2022-09-09T01:22:49;19.75;;;8.40;;
52074;SDS011;38075;53.172;5.446;2022-09-09T01:28:27;41.53;;;9.18;;
52074;SDS011;38075;53.172;5.446;2022-09-09T01:30:54;145.52;;;12.68;;
52074;SDS011;38075;53.172;5.446;2022-09-09T01:33:21;20.35;;;7.72;;
52074;SDS011;38075;53.172;5.446;2022-09-09T01:35:55;19.60;;;8.35;;
52074;SDS011;38075;53.172;5.446;2022-09-09T01:38:37;17.10;;;8.57;;
52074;SDS011;38075;53.172;5.446;2022-09-09T01:41:03;20.35;;;8.23;;
52074;SDS011;38075;53.172;5.446;2022-09-09T01:43:29;287.30;;;15.88;;
52074;SDS011;38075;53.172;5.446;2022-09-09T01:45:55;171.32;;;12.18;;
52074;SDS011;38075;53.172;5.446;2022-09-09T01:48:24;76.95;;;8.70;;
52074;SDS011;38075;53.172;5.446;2022-09-09T01:50:51;119.10;;;10.75;;
52074;SDS011;38075;53.172;5.446;2022-09-09T01:53:17;70.03;;;8.95;;
52074;SDS011;38075;53.172;5.446;2022-09-09T01:58:34;16.55;;;8.60;;
52074;SDS011;38075;53.172;5.446;2022-09-09T02:01:17;15.65;;;9.35;;
52074;SDS011;38075;53.172;5.446;2022-09-09T02:04:00;19.17;;;9.43;;
52074;SDS011;38075;53.172;5.446;2022-09-09T02:06:42;171.77;;;14.30;;
52074;SDS011;38075;53.172;5.446;2022-09-09T02:09:11;84.70;;;13.27;;
52074;SDS011;38075;53.172;5.446;2022-09-09T02:11:39;109.13;;;11.60;;
52074;SDS011;38075;53.172;5.446;2022-09-09T02:14:08;23.05;;;8.63;;
52074;SDS011;38075;53.172;5.446;2022-09-09T02:19:14;13.82;;;8.30;;
52074;SDS011;38075;53.172;5.446;2022-09-09T02:21:50;20.05;;;9.13;;
52074;SDS011;38075;53.172;5.446;2022-09-09T02:24:18;16.15;;;9.27;;
52074;SDS011;38075;53.172;5.446;2022-09-09T02:26:45;18.08;;;9.10;;
52074;SDS011;38075;53.172;5.446;2022-09-09T02:29:17;19.88;;;10.23;;
52074;SDS011;38075;53.172;5.446;2022-09-09T02:31:46;18.88;;;10.90;;
52074;SDS011;38075;53.172;5.446;2022-09-09T02:34:13;19.23;;;10.80;;
52074;SDS011;38075;53.172;5.446;2022-09-09T02:36:42;23.73;;;11.02;;
52074;SDS011;38075;53.172;5.446;2022-09-09T02:39:10;23.15;;;11.38;;
52074;SDS011;38075;53.172;5.446;2022-09-09T02:41:37;27.27;;;11.32;;
52074;SDS011;38075;53.172;5.446;2022-09-09T02:44:08;17.98;;;9.40;;
52074;SDS011;38075;53.172;5.446;2022-09-09T02:52:01;162.73;;;11.95;;
52074;SDS011;38075;53.172;5.446;2022-09-09T02:54:38;158.43;;;12.60;;
52074;SDS011;38075;53.172;5.446;2022-09-09T02:59:38;72.28;;;7.85;;
52074;SDS011;38075;53.172;5.446;2022-09-09T03:02:04;143.63;;;8.77;;
52074;SDS011;38075;53.172;5.446;2022-09-09T03:04:30;303.70;;;13.48;;
52074;SDS011;38075;53.172;5.446;2022-09-09T03:06:56;141.35;;;9.30;;
52074;SDS011;38075;53.172;5.446;2022-09-09T03:09:25;67.13;;;7.50;;
52074;SDS011;38075;53.172;5.446;2022-09-09T03:11:51;12.85;;;6.30;;
52074;SDS011;38075;53.172;5.446;2022-09-09T03:14:17;13.55;;;6.82;;
52074;SDS011;38075;53.172;5.446;2022-09-09T03:16:46;14.18;;;7.55;;
52074;SDS011;38075;53.172;5.446;2022-09-09T03:19:12;17.83;;;9.25;;
52074;SDS011;38075;53.172;5.446;2022-09-09T03:21:38;57.60;;;7.63;;
52074;SDS011;38075;53.172;5.446;2022-09-09T03:24:04;85.97;;;7.93;;
52074;SDS011;38075;53.172;5.446;2022-09-09T03:26:30;61.90;;;7.50;;
52074;SDS011;38075;53.172;5.446;2022-09-09T03:28:56;13.13;;;7.15;;
52074;SDS011;38075;53.172;5.446;2022-09-09T03:31:22;14.23;;;7.75;;
52074;SDS011;38075;53.172;5.446;2022-09-09T03:33:48;14.82;;;9.43;;
52074;SDS011;38075;53.172;5.446;2022-09-09T03:36:14;14.65;;;9.32;;
52074;SDS011;38075;53.172;5.446;2022-09-09T03:38:40;21.45;;;10.80;;
52074;SDS011;38075;53.172;5.446;2022-09-09T03:41:06;18.17;;;10.00;;
52074;SDS011;38075;53.172;5.446;2022-09-09T03:43:32;14.20;;;8.60;;
52074;SDS011;38075;53.172;5.446;2022-09-09T03:45:59;20.90;;;9.98;;
52074;SDS011;38075;53.172;5.446;2022-09-09T03:48:25;15.55;;;9.13;;
52074;SDS011;38075;53.172;5.446;2022-09-09T03:50:53;17.50;;;8.48;;
52074;SDS011;38075;53.172;5.446;2022-09-09T03:53:23;39.78;;;9.77;;
52074;SDS011;38075;53.172;5.446;2022-09-09T03:55:50;15.05;;;8.85;;
52074;SDS011;38075;53.172;5.446;2022-09-09T03:58:19;15.18;;;8.52;;
52074;SDS011;38075;53.172;5.446;2022-09-09T04:03:26;15.05;;;8.38;;
52074;SDS011;38075;53.172;5.446;2022-09-09T04:06:11;19.17;;;8.15;;
52074;SDS011;38075;53.172;5.446;2022-09-09T04:08:40;16.02;;;7.05;;
52074;SDS011;38075;53.172;5.446;2022-09-09T04:11:06;9.43;;;6.32;;
52074;SDS011;38075;53.172;5.446;2022-09-09T04:13:33;12.38;;;7.22;;
52074;SDS011;38075;53.172;5.446;2022-09-09T04:15:59;15.80;;;9.15;;
52074;SDS011;38075;53.172;5.446;2022-09-09T04:18:27;15.40;;;9.57;;
52074;SDS011;38075;53.172;5.446;2022-09-09T04:20:53;19.80;;;10.13;;
52074;SDS011;38075;53.172;5.446;2022-09-09T04:23:22;17.55;;;9.40;;
52074;SDS011;38075;53.172;5.446;2022-09-09T04:25:49;17.30;;;9.05;;
52074;SDS011;38075;53.172;5.446;2022-09-09T04:28:17;17.55;;;9.73;;
52074;SDS011;38075;53.172;5.446;2022-09-09T04:30:44;18.98;;;9.50;;
52074;SDS011;38075;53.172;5.446;2022-09-09T04:33:11;17.95;;;9.27;;
52074;SDS011;38075;53.172;5.446;2022-09-09T04:35:37;19.77;;;10.07;;
52074;SDS011;38075;53.172;5.446;2022-09-09T04:38:04;20.77;;;9.70;;
52074;SDS011;38075;53.172;5.446;2022-09-09T04:40:33;21.63;;;11.00;;
52074;SDS011;38075;53.172;5.446;2022-09-09T04:42:59;27.52;;;11.55;;
52074;SDS011;38075;53.172;5.446;2022-09-09T04:45:25;20.73;;;10.90;;
52074;SDS011;38075;53.172;5.446;2022-09-09T04:47:51;25.02;;;13.63;;
52074;SDS011;38075;53.172;5.446;2022-09-09T04:50:18;25.50;;;11.65;;
52074;SDS011;38075;53.172;5.446;2022-09-09T04:52:44;43.70;;;13.98;;
52074;SDS011;38075;53.172;5.446;2022-09-09T04:55:24;22.38;;;11.38;;
52074;SDS011;38075;53.172;5.446;2022-09-09T04:57:50;24.77;;;12.77;;
52074;SDS011;38075;53.172;5.446;2022-09-09T05:00:15;27.23;;;12.20;;
52074;SDS011;38075;53.172;5.446;2022-09-09T05:02:42;36.20;;;13.25;;
52074;SDS011;38075;53.172;5.446;2022-09-09T05:05:07;104.85;;;15.38;;
52074;SDS011;38075;53.172;5.446;2022-09-09T05:07:33;73.85;;;12.40;;
52074;SDS011;38075;53.172;5.446;2022-09-09T05:09:59;42.95;;;10.75;;
52074;SDS011;38075;53.172;5.446;2022-09-09T05:12:25;22.13;;;10.88;;
52074;SDS011;38075;53.172;5.446;2022-09-09T05:14:51;28.80;;;9.68;;
52074;SDS011;38075;53.172;5.446;2022-09-09T05:17:17;18.45;;;8.85;;
52074;SDS011;38075;53.172;5.446;2022-09-09T05:19:43;18.15;;;8.73;;
52074;SDS011;38075;53.172;5.446;2022-09-09T05:22:09;20.40;;;9.07;;
52074;SDS011;38075;53.172;5.446;2022-09-09T05:24:36;16.40;;;8.07;;
52074;SDS011;38075;53.172;5.446;2022-09-09T05:27:02;20.25;;;8.70;;
52074;SDS011;38075;53.172;5.446;2022-09-09T05:29:30;14.43;;;8.30;;
52074;SDS011;38075;53.172;5.446;2022-09-09T05:31:58;13.07;;;7.47;;
52074;SDS011;38075;53.172;5.446;2022-09-09T05:34:24;15.07;;;7.20;;
52074;SDS011;38075;53.172;5.446;2022-09-09T05:36:53;15.55;;;7.70;;
52074;SDS011;38075;53.172;5.446;2022-09-09T05:39:21;12.75;;;7.90;;
52074;SDS011;38075;53.172;5.446;2022-09-09T05:41:47;12.80;;;7.65;;
52074;SDS011;38075;53.172;5.446;2022-09-09T05:44:12;18.00;;;8.07;;
52074;SDS011;38075;53.172;5.446;2022-09-09T05:46:38;14.00;;;7.80;;
52074;SDS011;38075;53.172;5.446;2022-09-09T05:49:04;16.10;;;8.35;;
52074;SDS011;38075;53.172;5.446;2022-09-09T05:54:25;13.35;;;7.47;;
52074;SDS011;38075;53.172;5.446;2022-09-09T05:56:51;16.55;;;8.30;;
52074;SDS011;38075;53.172;5.446;2022-09-09T05:59:18;14.65;;;8.45;;
52074;SDS011;38075;53.172;5.446;2022-09-09T06:01:44;18.67;;;9.63;;
52074;SDS011;38075;53.172;5.446;2022-09-09T06:04:10;18.02;;;9.00;;
52074;SDS011;38075;53.172;5.446;2022-09-09T06:06:36;19.77;;;10.07;;
52074;SDS011;38075;53.172;5.446;2022-09-09T06:09:05;19.65;;;10.35;;
52074;SDS011;38075;53.172;5.446;2022-09-09T06:11:34;19.88;;;10.65;;
52074;SDS011;38075;53.172;5.446;2022-09-09T06:14:02;18.85;;;10.43;;
52074;SDS011;38075;53.172;5.446;2022-09-09T06:16:28;17.15;;;9.57;;
52074;SDS011;38075;53.172;5.446;2022-09-09T06:18:55;16.38;;;10.73;;
52074;SDS011;38075;53.172;5.446;2022-09-09T06:21:27;15.63;;;10.23;;
52074;SDS011;38075;53.172;5.446;2022-09-09T06:23:55;21.13;;;12.52;;
52074;SDS011;38075;53.172;5.446;2022-09-09T06:26:25;18.50;;;12.18;;
52074;SDS011;38075;53.172;5.446;2022-09-09T06:28:51;23.60;;;11.85;;
52074;SDS011;38075;53.172;5.446;2022-09-09T06:31:19;18.50;;;10.30;;
52074;SDS011;38075;53.172;5.446;2022-09-09T06:33:47;21.60;;;11.93;;
52074;SDS011;38075;53.172;5.446;2022-09-09T06:36:18;19.08;;;11.73;;
52074;SDS011;38075;53.172;5.446;2022-09-09T06:38:45;19.00;;;11.45;;
52074;SDS011;38075;53.172;5.446;2022-09-09T06:41:12;19.40;;;11.52;;
52074;SDS011;38075;53.172;5.446;2022-09-09T06:43:39;17.55;;;12.48;;
52074;SDS011;38075;53.172;5.446;2022-09-09T06:46:06;18.52;;;11.85;;
52074;SDS011;38075;53.172;5.446;2022-09-09T06:48:36;17.27;;;12.25;;
52074;SDS011;38075;53.172;5.446;2022-09-09T06:51:10;19.35;;;13.10;;
52074;SDS011;38075;53.172;5.446;2022-09-09T06:53:37;17.73;;;12.38;;
52074;SDS011;38075;53.172;5.446;2022-09-09T06:58:36;16.58;;;12.80;;
52074;SDS011;38075;53.172;5.446;2022-09-09T07:01:05;15.63;;;11.93;;
52074;SDS011;38075;53.172;5.446;2022-09-09T07:03:32;14.35;;;11.35;;
52074;SDS011;38075;53.172;5.446;2022-09-09T07:06:23;13.43;;;10.95;;
52074;SDS011;38075;53.172;5.446;2022-09-09T07:08:53;14.60;;;10.68;;
52074;SDS011;38075;53.172;5.446;2022-09-09T07:11:20;13.75;;;10.50;;
52074;SDS011;38075;53.172;5.446;2022-09-09T07:13:47;13.57;;;11.15;;
52074;SDS011;38075;53.172;5.446;2022-09-09T07:16:14;12.48;;;9.70;;
52074;SDS011;38075;53.172;5.446;2022-09-09T07:18:42;12.55;;;9.63;;
52074;SDS011;38075;53.172;5.446;2022-09-09T07:21:09;11.85;;;9.65;;
52074;SDS011;38075;53.172;5.446;2022-09-09T07:23:37;12.52;;;9.73;;
52074;SDS011;38075;53.172;5.446;2022-09-09T07:26:07;12.80;;;9.75;;
52074;SDS011;38075;53.172;5.446;2022-09-09T07:28:38;11.70;;;8.82;;
52074;SDS011;38075;53.172;5.446;2022-09-09T07:31:04;10.77;;;9.23;;
52074;SDS011;38075;53.172;5.446;2022-09-09T07:33:31;10.45;;;8.70;;
52074;SDS011;38075;53.172;5.446;2022-09-09T07:36:03;12.52;;;8.65;;
52074;SDS011;38075;53.172;5.446;2022-09-09T07:38:32;10.02;;;8.07;;
52074;SDS011;38075;53.172;5.446;2022-09-09T07:41:05;10.27;;;8.32;;
52074;SDS011;38075;53.172;5.446;2022-09-09T07:43:37;10.30;;;8.45;;
52074;SDS011;38075;53.172;5.446;2022-09-09T07:46:04;10.73;;;8.80;;
52074;SDS011;38075;53.172;5.446;2022-09-09T07:48:47;9.77;;;8.68;;
52074;SDS011;38075;53.172;5.446;2022-09-09T07:51:23;11.50;;;9.73;;
52074;SDS011;38075;53.172;5.446;2022-09-09T07:54:00;12.25;;;10.05;;
52074;SDS011;38075;53.172;5.446;2022-09-09T07:56:40;11.00;;;9.90;;
52074;SDS011;38075;53.172;5.446;2022-09-09T07:59:07;11.93;;;10.07;;
52074;SDS011;38075;53.172;5.446;2022-09-09T08:01:37;10.75;;;9.27;;
52074;SDS011;38075;53.172;5.446;2022-09-09T08:04:14;9.43;;;7.82;;
52074;SDS011;38075;53.172;5.446;2022-09-09T08:06:46;11.35;;;8.05;;
52074;SDS011;38075;53.172;5.446;2022-09-09T08:09:18;10.25;;;7.80;;
52074;SDS011;38075;53.172;5.446;2022-09-09T08:11:44;8.52;;;7.35;;
52074;SDS011;38075;53.172;5.446;2022-09-09T08:14:13;10.50;;;7.50;;
52074;SDS011;38075;53.172;5.446;2022-09-09T08:16:43;8.23;;;7.28;;
52074;SDS011;38075;53.172;5.446;2022-09-09T08:19:10;10.00;;;6.93;;
52074;SDS011;38075;53.172;5.446;2022-09-09T08:21:37;12.52;;;7.45;;
52074;SDS011;38075;53.172;5.446;2022-09-09T08:24:05;9.38;;;7.35;;
52074;SDS011;38075;53.172;5.446;2022-09-09T08:26:33;9.20;;;7.03;;
52074;SDS011;38075;53.172;5.446;2022-09-09T08:29:00;7.50;;;6.80;;
52074;SDS011;38075;53.172;5.446;2022-09-09T08:31:33;9.38;;;6.75;;
52074;SDS011;38075;53.172;5.446;2022-09-09T08:34:04;8.93;;;6.82;;
52074;SDS011;38075;53.172;5.446;2022-09-09T08:36:41;9.13;;;6.45;;
52074;SDS011;38075;53.172;5.446;2022-09-09T08:39:09;9.88;;;6.63;;
52074;SDS011;38075;53.172;5.446;2022-09-09T08:44:16;11.45;;;7.50;;
52074;SDS011;38075;53.172;5.446;2022-09-09T08:46:50;7.97;;;6.75;;
52074;SDS011;38075;53.172;5.446;2022-09-09T08:51:54;7.68;;;6.47;;
52074;SDS011;38075;53.172;5.446;2022-09-09T08:54:25;10.40;;;6.97;;
52074;SDS011;38075;53.172;5.446;2022-09-09T08:56:58;11.40;;;7.43;;
52074;SDS011;38075;53.172;5.446;2022-09-09T08:59:24;9.23;;;6.80;;
52074;SDS011;38075;53.172;5.446;2022-09-09T09:01:51;9.23;;;7.53;;
52074;SDS011;38075;53.172;5.446;2022-09-09T09:04:38;8.45;;;6.68;;
52074;SDS011;38075;53.172;5.446;2022-09-09T09:14:00;8.43;;;6.38;;
52074;SDS011;38075;53.172;5.446;2022-09-09T09:16:33;8.35;;;5.43;;
52074;SDS011;38075;53.172;5.446;2022-09-09T09:19:04;10.48;;;5.75;;
52074;SDS011;38075;53.172;5.446;2022-09-09T09:21:40;8.55;;;5.88;;
52074;SDS011;38075;53.172;5.446;2022-09-09T09:27:22;9.77;;;5.45;;
52074;SDS011;38075;53.172;5.446;2022-09-09T09:30:02;9.45;;;5.05;;
52074;SDS011;38075;53.172;5.446;2022-09-09T09:32:39;9.02;;;5.20;;
52074;SDS011;38075;53.172;5.446;2022-09-09T09:35:11;8.40;;;4.72;;
52074;SDS011;38075;53.172;5.446;2022-09-09T09:37:39;8.32;;;4.40;;
52074;SDS011;38075;53.172;5.446;2022-09-09T09:40:23;6.57;;;4.15;;
52074;SDS011;38075;53.172;5.446;2022-09-09T09:42:56;7.70;;;4.38;;
52074;SDS011;38075;53.172;5.446;2022-09-09T09:45:43;7.88;;;3.95;;
52074;SDS011;38075;53.172;5.446;2022-09-09T09:48:12;7.68;;;3.97;;
52074;SDS011;38075;53.172;5.446;2022-09-09T09:50:55;6.07;;;3.80;;
52074;SDS011;38075;53.172;5.446;2022-09-09T09:56:00;7.25;;;4.00;;
52074;SDS011;38075;53.172;5.446;2022-09-09T09:58:29;9.95;;;4.22;;
52074;SDS011;38075;53.172;5.446;2022-09-09T10:00:58;7.05;;;3.95;;
52074;SDS011;38075;53.172;5.446;2022-09-09T10:03:26;7.30;;;4.10;;
52074;SDS011;38075;53.172;5.446;2022-09-09T10:05:56;7.47;;;3.80;;
52074;SDS011;38075;53.172;5.446;2022-09-09T10:08:26;7.78;;;3.65;;
52074;SDS011;38075;53.172;5.446;2022-09-09T10:10:57;6.55;;;3.20;;
52074;SDS011;38075;53.172;5.446;2022-09-09T10:13:48;7.45;;;3.38;;
52074;SDS011;38075;53.172;5.446;2022-09-09T10:16:38;6.50;;;3.20;;
52074;SDS011;38075;53.172;5.446;2022-09-09T10:19:35;7.22;;;3.00;;
52074;SDS011;38075;53.172;5.446;2022-09-09T10:22:21;5.25;;;2.72;;
52074;SDS011;38075;53.172;5.446;2022-09-09T10:25:02;5.97;;;2.75;;
52074;SDS011;38075;53.172;5.446;2022-09-09T10:30:30;6.43;;;2.87;;
52074;SDS011;38075;53.172;5.446;2022-09-09T10:33:08;5.85;;;2.70;;
52074;SDS011;38075;53.172;5.446;2022-09-09T10:43:38;4.65;;;2.80;;
52074;SDS011;38075;53.172;5.446;2022-09-09T10:46:34;6.07;;;2.28;;
52074;SDS011;38075;53.172;5.446;2022-09-09T10:51:40;4.22;;;2.25;;
52074;SDS011;38075;53.172;5.446;2022-09-09T10:54:43;4.63;;;2.28;;
52074;SDS011;38075;53.172;5.446;2022-09-09T11:00:13;6.18;;;2.42;;
52074;SDS011;38075;53.172;5.446;2022-09-09T11:02:44;4.55;;;2.05;;
52074;SDS011;38075;53.172;5.446;2022-09-09T11:05:31;5.47;;;2.58;;
52074;SDS011;38075;53.172;5.446;2022-09-09T11:08:21;6.47;;;2.30;;
52074;SDS011;38075;53.172;5.446;2022-09-09T11:13:22;8.18;;;2.60;;
52074;SDS011;38075;53.172;5.446;2022-09-09T11:15:58;6.95;;;2.90;;
52074;SDS011;38075;53.172;5.446;2022-09-09T11:18:29;7.65;;;2.55;;
52074;SDS011;38075;53.172;5.446;2022-09-09T11:21:02;6.75;;;3.08;;
52074;SDS011;38075;53.172;5.446;2022-09-09T11:23:37;5.38;;;2.53;;
52074;SDS011;38075;53.172;5.446;2022-09-09T11:26:07;5.05;;;2.25;;
52074;SDS011;38075;53.172;5.446;2022-09-09T11:38:10;6.38;;;3.22;;
52074;SDS011;38075;53.172;5.446;2022-09-09T11:40:33;5.63;;;2.80;;
52074;SDS011;38075;53.172;5.446;2022-09-09T11:43:03;5.65;;;2.80;;
52074;SDS011;38075;53.172;5.446;2022-09-09T11:45:34;5.55;;;2.65;;
52074;SDS011;38075;53.172;5.446;2022-09-09T11:48:01;5.65;;;2.63;;
52074;SDS011;38075;53.172;5.446;2022-09-09T11:50:32;6.20;;;2.40;;
52074;SDS011;38075;53.172;5.446;2022-09-09T11:55:39;6.30;;;2.35;;
52074;SDS011;38075;53.172;5.446;2022-09-09T11:58:05;5.05;;;2.20;;
52074;SDS011;38075;53.172;5.446;2022-09-09T12:00:45;5.03;;;2.08;;
52074;SDS011;38075;53.172;5.446;2022-09-09T12:06:15;7.50;;;2.92;;
52074;SDS011;38075;53.172;5.446;2022-09-09T12:08:57;6.93;;;3.00;;
52074;SDS011;38075;53.172;5.446;2022-09-09T12:11:37;6.25;;;3.05;;
52074;SDS011;38075;53.172;5.446;2022-09-09T12:14:04;6.15;;;3.20;;
52074;SDS011;38075;53.172;5.446;2022-09-09T12:19:32;4.95;;;2.80;;
52074;SDS011;38075;53.172;5.446;2022-09-09T12:21:54;5.43;;;3.28;;
52074;SDS011;38075;53.172;5.446;2022-09-09T12:24:33;6.00;;;2.97;;
52074;SDS011;38075;53.172;5.446;2022-09-09T12:27:22;8.52;;;3.45;;
52074;SDS011;38075;53.172;5.446;2022-09-09T12:32:23;5.70;;;3.65;;
52074;SDS011;38075;53.172;5.446;2022-09-09T12:34:54;7.35;;;3.45;;
52074;SDS011;38075;53.172;5.446;2022-09-09T12:40:06;5.32;;;2.63;;
52074;SDS011;38075;53.172;5.446;2022-09-09T12:42:47;7.25;;;2.78;;
52074;SDS011;38075;53.172;5.446;2022-09-09T12:45:17;6.93;;;2.85;;
52074;SDS011;38075;53.172;5.446;2022-09-09T12:50:21;4.50;;;2.90;;
52074;SDS011;38075;53.172;5.446;2022-09-09T12:52:50;6.00;;;3.00;;
52074;SDS011;38075;53.172;5.446;2022-09-09T12:55:30;6.88;;;3.20;;
52074;SDS011;38075;53.172;5.446;2022-09-09T12:57:58;8.15;;;3.35;;
52074;SDS011;38075;53.172;5.446;2022-09-09T13:00:26;8.60;;;2.88;;
52074;SDS011;38075;53.172;5.446;2022-09-09T13:02:56;5.53;;;2.92;;
52074;SDS011;38075;53.172;5.446;2022-09-09T13:05:42;5.13;;;3.17;;
52074;SDS011;38075;53.172;5.446;2022-09-09T13:08:12;6.20;;;2.88;;
52074;SDS011;38075;53.172;5.446;2022-09-09T13:11:00;5.70;;;3.25;;
52074;SDS011;38075;53.172;5.446;2022-09-09T13:13:33;5.30;;;2.90;;
52074;SDS011;38075;53.172;5.446;2022-09-09T13:16:01;7.38;;;3.50;;
52074;SDS011;38075;53.172;5.446;2022-09-09T13:18:40;7.13;;;3.35;;
52074;SDS011;38075;53.172;5.446;2022-09-09T13:21:07;8.43;;;3.72;;
52074;SDS011;38075;53.172;5.446;2022-09-09T13:23:36;5.95;;;2.80;;
52074;SDS011;38075;53.172;5.446;2022-09-09T13:26:04;4.35;;;2.97;;
52074;SDS011;38075;53.172;5.446;2022-09-09T13:28:33;6.95;;;3.00;;
52074;SDS011;38075;53.172;5.446;2022-09-09T13:31:03;5.70;;;2.90;;
52074;SDS011;38075;53.172;5.446;2022-09-09T13:33:38;4.78;;;2.60;;
52074;SDS011;38075;53.172;5.446;2022-09-09T13:36:09;7.75;;;2.97;;
52074;SDS011;38075;53.172;5.446;2022-09-09T13:41:04;6.38;;;2.53;;
52074;SDS011;38075;53.172;5.446;2022-09-09T13:43:35;4.93;;;2.67;;
52074;SDS011;38075;53.172;5.446;2022-09-09T13:49:00;5.40;;;2.50;;
52074;SDS011;38075;53.172;5.446;2022-09-09T13:51:37;5.07;;;2.67;;
52074;SDS011;38075;53.172;5.446;2022-09-09T13:54:06;4.65;;;2.65;;
52074;SDS011;38075;53.172;5.446;2022-09-09T13:56:34;5.63;;;2.90;;
52074;SDS011;38075;53.172;5.446;2022-09-09T13:59:01;5.72;;;2.47;;
52074;SDS011;38075;53.172;5.446;2022-09-09T14:01:28;5.22;;;2.78;;
52074;SDS011;38075;53.172;5.446;2022-09-09T14:03:54;5.68;;;2.55;;
52074;SDS011;38075;53.172;5.446;2022-09-09T14:06:20;5.18;;;2.50;;
52074;SDS011;38075;53.172;5.446;2022-09-09T14:08:47;4.95;;;2.42;;
52074;SDS011;38075;53.172;5.446;2022-09-09T14:11:15;5.43;;;2.60;;
52074;SDS011;38075;53.172;5.446;2022-09-09T14:13:40;4.97;;;2.85;;
52074;SDS011;38075;53.172;5.446;2022-09-09T14:16:06;3.70;;;2.38;;
52074;SDS011;38075;53.172;5.446;2022-09-09T14:18:32;4.53;;;2.38;;
52074;SDS011;38075;53.172;5.446;2022-09-09T14:20:59;4.25;;;2.30;;
52074;SDS011;38075;53.172;5.446;2022-09-09T14:23:25;4.50;;;2.42;;
52074;SDS011;38075;53.172;5.446;2022-09-09T14:25:50;4.22;;;2.30;;
52074;SDS011;38075;53.172;5.446;2022-09-09T14:28:17;6.20;;;2.42;;
52074;SDS011;38075;53.172;5.446;2022-09-09T14:30:43;5.40;;;2.58;;
52074;SDS011;38075;53.172;5.446;2022-09-09T14:33:12;4.47;;;2.50;;
52074;SDS011;38075;53.172;5.446;2022-09-09T14:35:40;8.52;;;2.95;;
52074;SDS011;38075;53.172;5.446;2022-09-09T14:38:06;4.35;;;2.40;;
52074;SDS011;38075;53.172;5.446;2022-09-09T14:40:34;4.97;;;2.30;;
52074;SDS011;38075;53.172;5.446;2022-09-09T14:43:00;4.45;;;2.42;;
52074;SDS011;38075;53.172;5.446;2022-09-09T14:45:30;4.40;;;2.45;;
52074;SDS011;38075;53.172;5.446;2022-09-09T14:47:56;7.50;;;2.97;;
52074;SDS011;38075;53.172;5.446;2022-09-09T14:50:22;5.18;;;3.20;;
52074;SDS011;38075;53.172;5.446;2022-09-09T14:52:48;6.35;;;3.20;;
52074;SDS011;38075;53.172;5.446;2022-09-09T14:55:15;6.20;;;3.80;;
52074;SDS011;38075;53.172;5.446;2022-09-09T14:57:41;6.40;;;3.40;;
52074;SDS011;38075;53.172;5.446;2022-09-09T15:00:09;7.95;;;4.15;;
52074;SDS011;38075;53.172;5.446;2022-09-09T15:02:39;5.28;;;4.10;;
52074;SDS011;38075;53.172;5.446;2022-09-09T15:05:05;6.63;;;4.20;;
52074;SDS011;38075;53.172;5.446;2022-09-09T15:07:31;5.97;;;4.07;;
52074;SDS011;38075;53.172;5.446;2022-09-09T15:09:57;6.63;;;3.90;;
52074;SDS011;38075;53.172;5.446;2022-09-09T15:12:23;5.05;;;4.00;;
52074;SDS011;38075;53.172;5.446;2022-09-09T15:14:49;5.70;;;4.13;;
52074;SDS011;38075;53.172;5.446;2022-09-09T15:17:16;4.80;;;3.67;;
52074;SDS011;38075;53.172;5.446;2022-09-09T15:19:41;5.38;;;3.45;;
52074;SDS011;38075;53.172;5.446;2022-09-09T15:22:07;5.07;;;3.80;;
52074;SDS011;38075;53.172;5.446;2022-09-09T15:24:34;5.05;;;3.25;;
52074;SDS011;38075;53.172;5.446;2022-09-09T15:27:00;4.93;;;3.20;;
52074;SDS011;38075;53.172;5.446;2022-09-09T15:29:26;5.78;;;3.30;;
52074;SDS011;38075;53.172;5.446;2022-09-09T15:31:54;6.00;;;3.50;;
52074;SDS011;38075;53.172;5.446;2022-09-09T15:34:20;4.10;;;3.25;;
52074;SDS011;38075;53.172;5.446;2022-09-09T15:36:47;5.28;;;4.05;;
52074;SDS011;38075;53.172;5.446;2022-09-09T15:39:16;6.40;;;4.10;;
52074;SDS011;38075;53.172;5.446;2022-09-09T15:41:43;6.57;;;3.72;;
52074;SDS011;38075;53.172;5.446;2022-09-09T15:44:10;5.10;;;3.80;;
52074;SDS011;38075;53.172;5.446;2022-09-09T15:46:44;5.70;;;3.88;;
52074;SDS011;38075;53.172;5.446;2022-09-09T15:49:12;6.20;;;4.25;;
52074;SDS011;38075;53.172;5.446;2022-09-09T15:51:43;6.30;;;4.10;;
52074;SDS011;38075;53.172;5.446;2022-09-09T15:56:37;7.07;;;3.97;;
52074;SDS011;38075;53.172;5.446;2022-09-09T15:59:03;4.97;;;2.80;;
52074;SDS011;38075;53.172;5.446;2022-09-09T16:01:30;4.25;;;2.80;;
52074;SDS011;38075;53.172;5.446;2022-09-09T16:03:57;3.15;;;2.30;;
52074;SDS011;38075;53.172;5.446;2022-09-09T16:06:24;3.55;;;2.00;;
52074;SDS011;38075;53.172;5.446;2022-09-09T16:08:51;3.35;;;2.75;;
52074;SDS011;38075;53.172;5.446;2022-09-09T16:11:19;2.33;;;1.67;;
52074;SDS011;38075;53.172;5.446;2022-09-09T16:13:47;3.08;;;1.90;;
52074;SDS011;38075;53.172;5.446;2022-09-09T16:16:15;3.42;;;2.10;;
52074;SDS011;38075;53.172;5.446;2022-09-09T16:18:45;4.03;;;2.15;;
52074;SDS011;38075;53.172;5.446;2022-09-09T16:21:25;3.97;;;2.25;;
52074;SDS011;38075;53.172;5.446;2022-09-09T16:23:56;4.05;;;2.50;;
52074;SDS011;38075;53.172;5.446;2022-09-09T16:26:31;3.75;;;2.30;;
52074;SDS011;38075;53.172;5.446;2022-09-09T16:28:58;4.95;;;2.53;;
52074;SDS011;38075;53.172;5.446;2022-09-09T16:31:25;3.85;;;2.67;;
52074;SDS011;38075;53.172;5.446;2022-09-09T16:33:55;4.00;;;2.88;;
52074;SDS011;38075;53.172;5.446;2022-09-09T16:36:24;4.65;;;2.85;;
52074;SDS011;38075;53.172;5.446;2022-09-09T16:38:55;4.30;;;2.83;;
52074;SDS011;38075;53.172;5.446;2022-09-09T16:41:26;4.28;;;3.05;;
52074;SDS011;38075;53.172;5.446;2022-09-09T16:43:53;4.82;;;3.53;;
52074;SDS011;38075;53.172;5.446;2022-09-09T16:46:21;4.65;;;3.58;;
52074;SDS011;38075;53.172;5.446;2022-09-09T16:48:48;4.63;;;3.40;;
52074;SDS011;38075;53.172;5.446;2022-09-09T16:51:18;4.25;;;3.20;;
52074;SDS011;38075;53.172;5.446;2022-09-09T16:53:52;5.03;;;3.38;;
52074;SDS011;38075;53.172;5.446;2022-09-09T16:56:21;5.45;;;3.83;;
52074;SDS011;38075;53.172;5.446;2022-09-09T16:58:53;5.45;;;3.58;;
52074;SDS011;38075;53.172;5.446;2022-09-09T17:01:21;6.95;;;3.50;;
52074;SDS011;38075;53.172;5.446;2022-09-09T17:03:51;4.28;;;3.30;;
52074;SDS011;38075;53.172;5.446;2022-09-09T17:06:18;3.95;;;3.28;;
52074;SDS011;38075;53.172;5.446;2022-09-09T17:08:44;4.32;;;3.05;;
52074;SDS011;38075;53.172;5.446;2022-09-09T17:11:14;5.55;;;3.88;;
52074;SDS011;38075;53.172;5.446;2022-09-09T17:13:42;5.82;;;4.22;;
52074;SDS011;38075;53.172;5.446;2022-09-09T17:16:08;7.85;;;4.47;;